createdAt,value
2016-03-11T00:00:03.096Z,2.69
2016-03-11T00:01:03.084Z,2.69
2016-03-11T00:02:03.086Z,2.62
2016-03-11T00:03:03.089Z,2.61
2016-03-11T00:04:03.076Z,2.62
2016-03-11T00:05:03.063Z,2.64
2016-03-11T00:06:03.067Z,2.65
2016-03-11T00:07:03.053Z,2.61
2016-03-11T00:08:03.055Z,2.54
2016-03-11T00:09:03.042Z,2.62
2016-03-11T00:10:03.030Z,2.54
2016-03-11T00:11:03.033Z,2.6
2016-03-11T00:12:03.036Z,2.54
2016-03-11T00:13:02.882Z,2.53
2016-03-11T00:14:03.025Z,2.56
2016-03-11T00:15:02.856Z,2.61
2016-03-11T00:16:03.015Z,2.56
2016-03-11T00:17:03.017Z,2.53
2016-03-11T00:18:03.005Z,2.53
2016-03-11T00:19:03.022Z,2.46
2016-03-11T00:20:02.994Z,2.49
2016-03-11T00:21:03.013Z,2.49
2016-03-11T00:22:02.985Z,2.5
2016-03-11T00:23:02.987Z,2.51
2016-03-11T00:24:02.974Z,2.56
2016-03-11T00:25:02.977Z,2.53
2016-03-11T00:26:02.963Z,2.51
2016-03-11T00:27:02.966Z,2.53
2016-03-11T00:28:02.969Z,2.5
2016-03-11T00:29:02.956Z,2.42
2016-03-11T00:30:02.974Z,2.44
2016-03-11T00:31:02.946Z,2.49
2016-03-11T00:32:02.948Z,2.44
2016-03-11T00:33:02.185Z,2.43
2016-03-11T00:34:02.938Z,2.53
2016-03-11T00:35:02.925Z,2.46
2016-03-11T00:36:02.929Z,2.42
2016-03-11T00:37:02.901Z,2.51
2016-03-11T00:38:02.934Z,2.47
2016-03-11T00:39:02.906Z,2.5
2016-03-11T00:40:02.908Z,2.51
2016-03-11T00:41:02.895Z,2.51
2016-03-11T00:42:02.898Z,2.53
2016-03-11T00:43:02.884Z,2.51
2016-03-11T00:44:02.903Z,2.39
2016-03-11T00:45:02.890Z,2.57
2016-03-11T00:46:02.861Z,2.49
2016-03-11T00:47:02.880Z,2.62
2016-03-11T00:48:02.851Z,2.6
2016-03-11T00:49:02.853Z,2.49
2016-03-11T00:50:02.841Z,2.42
2016-03-11T00:51:02.859Z,2.36
2016-03-11T00:52:02.831Z,2.43
2016-03-11T00:53:02.850Z,2.28
2016-03-11T00:54:02.837Z,2.35
2016-03-11T00:55:02.824Z,2.33
2016-03-11T00:56:02.811Z,2.26
2016-03-11T00:57:02.830Z,2.29
2016-03-11T00:58:02.800Z,2.32
2016-03-11T00:59:02.803Z,2.24
2016-03-11T01:00:02.838Z,2.25
2016-03-11T01:01:02.793Z,2.29
2016-03-11T01:02:02.796Z,2.28
2016-03-11T01:03:02.799Z,2.25
2016-03-11T01:04:02.786Z,2.28
2016-03-11T01:05:02.772Z,2.25
2016-03-11T01:06:02.791Z,2.35
2016-03-11T01:07:02.762Z,2.26
2016-03-11T01:08:02.765Z,2.38
2016-03-11T01:09:02.752Z,2.35
2016-03-11T01:10:02.754Z,2.29
2016-03-11T01:11:02.757Z,2.26
2016-03-11T01:12:02.745Z,2.26
2016-03-11T01:13:02.747Z,2.28
2016-03-11T01:14:02.718Z,2.25
2016-03-11T01:15:02.737Z,2.22
2016-03-11T01:16:02.709Z,2.13
2016-03-11T01:17:02.742Z,2.15
2016-03-11T01:18:02.698Z,2.15
2016-03-11T01:19:02.732Z,2.02
2016-03-11T01:20:02.704Z,2.04
2016-03-11T01:21:02.707Z,2.15
2016-03-11T01:22:02.678Z,2.13
2016-03-11T01:23:02.680Z,2.1
2016-03-11T01:24:02.667Z,2.15
2016-03-11T01:25:02.670Z,2.13
2016-03-11T01:26:02.673Z,2.1
2016-03-11T01:27:02.661Z,2.04
2016-03-11T01:28:02.679Z,2.11
2016-03-11T01:29:02.650Z,2.11
2016-03-11T01:30:02.669Z,2.08
2016-03-11T01:31:02.625Z,2.08
2016-03-11T01:32:02.674Z,2.06
2016-03-11T01:33:02.630Z,2.04
2016-03-11T01:34:02.633Z,2.04
2016-03-11T01:35:02.619Z,2.08
2016-03-11T01:36:02.622Z,2.07
2016-03-11T01:37:02.625Z,2.14
2016-03-11T01:38:02.596Z,2.15
2016-03-11T01:39:02.600Z,2.14
2016-03-11T01:40:02.586Z,2.1
2016-03-11T01:41:02.604Z,2.07
2016-03-11T01:42:02.576Z,2.13
2016-03-11T01:43:02.578Z,2.11
2016-03-11T01:44:02.566Z,2.08
2016-03-11T01:45:02.600Z,2.07
2016-03-11T01:46:02.571Z,2.04
2016-03-11T01:47:02.449Z,1.99
2016-03-11T01:48:02.545Z,1.94
2016-03-11T01:49:02.563Z,1.88
2016-03-11T01:50:02.581Z,1.94
2016-03-11T01:51:02.538Z,1.81
2016-03-11T01:52:02.524Z,1.87
2016-03-11T01:53:02.527Z,1.84
2016-03-11T01:54:02.514Z,1.85
2016-03-11T01:55:02.532Z,1.74
2016-03-11T01:56:02.488Z,1.73
2016-03-11T01:57:02.507Z,1.76
2016-03-11T01:58:02.494Z,1.76
2016-03-11T01:59:02.493Z,1.74
2016-03-11T02:00:02.469Z,1.71
2016-03-11T02:01:02.460Z,1.71
2016-03-11T02:02:02.500Z,1.73
2016-03-11T02:03:02.414Z,1.63
2016-03-11T02:04:02.423Z,1.63
2016-03-11T02:05:02.391Z,1.59
2016-03-11T02:06:02.437Z,1.66
2016-03-11T02:07:02.373Z,1.67
2016-03-11T02:08:02.388Z,1.68
2016-03-11T02:09:02.356Z,1.6
2016-03-11T02:10:02.372Z,1.6
2016-03-11T02:11:02.343Z,1.55
2016-03-11T02:12:02.344Z,1.53
2016-03-11T02:13:02.345Z,1.44
2016-03-11T02:14:02.331Z,1.53
2016-03-11T02:15:02.318Z,1.52
2016-03-11T02:16:02.320Z,1.45
2016-03-11T02:17:02.354Z,1.44
2016-03-11T02:18:02.308Z,1.48
2016-03-11T02:19:02.296Z,1.42
2016-03-11T02:20:02.283Z,1.45
2016-03-11T02:21:02.520Z,1.5
2016-03-11T02:22:02.288Z,1.49
2016-03-11T02:23:02.275Z,1.4
2016-03-11T02:24:02.278Z,1.44
2016-03-11T02:25:02.281Z,1.48
2016-03-11T02:26:02.252Z,1.4
2016-03-11T02:27:02.255Z,1.41
2016-03-11T02:28:02.242Z,1.44
2016-03-11T02:29:02.229Z,1.37
2016-03-11T02:30:02.232Z,1.42
2016-03-11T02:31:02.234Z,1.37
2016-03-11T02:32:02.253Z,1.32
2016-03-11T02:33:02.224Z,1.35
2016-03-11T02:34:02.227Z,1.32
2016-03-11T02:35:02.198Z,1.35
2016-03-11T02:36:02.201Z,1.34
2016-03-11T02:37:02.203Z,1.35
2016-03-11T02:38:02.191Z,1.38
2016-03-11T02:39:02.178Z,1.28
2016-03-11T02:40:02.181Z,1.44
2016-03-11T02:41:02.168Z,1.35
2016-03-11T02:42:02.155Z,1.32
2016-03-11T02:43:02.158Z,1.35
2016-03-11T02:44:02.145Z,1.38
2016-03-11T02:45:02.148Z,1.35
2016-03-11T02:46:02.134Z,1.24
2016-03-11T02:47:02.122Z,1.17
2016-03-11T02:48:02.124Z,1.26
2016-03-11T02:49:02.111Z,1.19
2016-03-11T02:50:02.098Z,1.2
2016-03-11T02:51:02.100Z,1.19
2016-03-11T02:52:02.088Z,1.17
2016-03-11T02:53:02.105Z,1.19
2016-03-11T02:54:02.093Z,1.08
2016-03-11T02:55:01.330Z,1.12
2016-03-11T02:56:02.083Z,0.99
2016-03-11T02:57:02.070Z,1.05
2016-03-11T02:58:02.057Z,1.01
2016-03-11T02:59:02.076Z,1.06
2016-03-11T03:00:02.046Z,1.06
2016-03-11T03:01:02.050Z,1.05
2016-03-11T03:02:02.052Z,1.02
2016-03-11T03:03:02.040Z,1.02
2016-03-11T03:04:02.042Z,1.01
2016-03-11T03:05:01.262Z,0.95
2016-03-11T03:06:02.031Z,0.96
2016-03-11T03:07:02.003Z,0.96
2016-03-11T03:08:02.037Z,0.98
2016-03-11T03:09:01.993Z,0.99
2016-03-11T03:10:01.995Z,0.96
2016-03-11T03:11:01.983Z,1.01
2016-03-11T03:12:01.986Z,1.04
2016-03-11T03:13:01.956Z,0.95
2016-03-11T03:14:01.975Z,0.98
2016-03-11T03:15:01.962Z,0.99
2016-03-11T03:16:01.964Z,0.94
2016-03-11T03:17:01.952Z,0.94
2016-03-11T03:18:01.954Z,0.92
2016-03-11T03:19:01.942Z,0.86
2016-03-11T03:20:01.929Z,0.96
2016-03-11T03:21:01.916Z,0.86
2016-03-11T03:22:01.919Z,0.87
2016-03-11T03:23:01.921Z,0.87
2016-03-11T03:24:01.908Z,0.88
2016-03-11T03:25:01.911Z,0.91
2016-03-11T03:26:01.914Z,0.92
2016-03-11T03:27:01.885Z,0.81
2016-03-11T03:28:01.872Z,0.83
2016-03-11T03:29:01.875Z,0.84
2016-03-11T03:30:01.862Z,0.92
2016-03-11T03:31:01.864Z,0.94
2016-03-11T03:32:01.852Z,0.94
2016-03-11T03:33:01.838Z,0.99
2016-03-11T03:34:01.857Z,0.94
2016-03-11T03:35:01.843Z,0.94
2016-03-11T03:36:01.847Z,0.86
2016-03-11T03:37:01.818Z,0.87
2016-03-11T03:38:01.837Z,0.84
2016-03-11T03:39:01.809Z,0.91
2016-03-11T03:40:01.826Z,0.81
2016-03-11T03:41:01.798Z,0.84
2016-03-11T03:42:01.817Z,0.84
2016-03-11T03:43:01.787Z,0.87
2016-03-11T03:44:01.790Z,0.77
2016-03-11T03:45:01.762Z,0.77
2016-03-11T03:46:01.764Z,0.7
2016-03-11T03:47:01.751Z,0.78
2016-03-11T03:48:01.738Z,0.73
2016-03-11T03:49:01.741Z,0.77
2016-03-11T03:50:01.744Z,0.78
2016-03-11T03:51:01.731Z,0.76
2016-03-11T03:52:01.718Z,0.76
2016-03-11T03:53:01.721Z,0.77
2016-03-11T03:54:01.707Z,0.74
2016-03-11T03:55:01.694Z,0.74
2016-03-11T03:56:01.697Z,0.65
2016-03-11T03:57:01.700Z,0.73
2016-03-11T03:58:01.687Z,0.66
2016-03-11T03:59:01.674Z,0.7
2016-03-11T04:00:01.661Z,0.68
2016-03-11T04:01:01.664Z,0.65
2016-03-11T04:02:01.652Z,0.7
2016-03-11T04:03:01.654Z,0.63
2016-03-11T04:04:01.656Z,0.59
2016-03-11T04:05:01.644Z,0.58
2016-03-11T04:06:01.662Z,0.6
2016-03-11T04:07:01.618Z,0.68
2016-03-11T04:08:01.620Z,0.62
2016-03-11T04:09:01.607Z,0.59
2016-03-11T04:10:01.626Z,0.62
2016-03-11T04:11:01.612Z,0.59
2016-03-11T04:12:01.615Z,0.52
2016-03-11T04:13:01.587Z,0.52
2016-03-11T04:14:01.573Z,0.56
2016-03-11T04:15:01.608Z,0.55
2016-03-11T04:16:01.564Z,0.58
2016-03-11T04:17:01.566Z,0.6
2016-03-11T04:18:01.570Z,0.56
2016-03-11T04:19:01.541Z,0.65
2016-03-11T04:20:01.544Z,0.58
2016-03-11T04:21:01.546Z,0.6
2016-03-11T04:22:01.533Z,0.58
2016-03-11T04:23:01.520Z,0.63
2016-03-11T04:24:01.523Z,0.59
2016-03-11T04:25:01.510Z,0.66
2016-03-11T04:26:01.544Z,0.62
2016-03-11T04:27:01.483Z,0.62
2016-03-11T04:28:01.486Z,0.65
2016-03-11T04:29:01.489Z,0.6
2016-03-11T04:30:01.461Z,0.63
2016-03-11T04:31:01.479Z,0.6
2016-03-11T04:32:01.466Z,0.63
2016-03-11T04:33:01.438Z,0.59
2016-03-11T04:34:01.472Z,0.52
2016-03-11T04:35:01.427Z,0.56
2016-03-11T04:36:01.446Z,0.55
2016-03-11T04:37:01.448Z,0.55
2016-03-11T04:38:01.420Z,0.55
2016-03-11T04:39:01.438Z,0.49
2016-03-11T04:40:01.393Z,0.49
2016-03-11T04:41:01.412Z,0.5
2016-03-11T04:42:01.383Z,0.49
2016-03-11T04:43:01.401Z,0.5
2016-03-11T04:44:01.373Z,0.56
2016-03-11T04:45:01.376Z,0.55
2016-03-11T04:46:01.379Z,0.49
2016-03-11T04:47:01.351Z,0.47
2016-03-11T04:48:01.353Z,0.55
2016-03-11T04:49:01.355Z,0.52
2016-03-11T04:50:01.328Z,0.6
2016-03-11T04:51:01.345Z,0.59
2016-03-11T04:52:01.332Z,0.58
2016-03-11T04:53:01.320Z,0.59
2016-03-11T04:54:01.306Z,0.56
2016-03-11T04:55:01.309Z,0.58
2016-03-11T04:56:01.312Z,0.5
2016-03-11T04:57:01.299Z,0.55
2016-03-11T04:58:01.286Z,0.49
2016-03-11T04:59:01.274Z,0.47
2016-03-11T05:00:01.291Z,0.5
2016-03-11T05:01:01.278Z,0.5
2016-03-11T05:02:01.266Z,0.47
2016-03-11T05:03:01.252Z,0.46
2016-03-11T05:04:01.240Z,0.39
2016-03-11T05:05:01.226Z,0.37
2016-03-11T05:06:01.246Z,0.44
2016-03-11T05:07:01.222Z,0.46
2016-03-11T05:08:01.241Z,0.39
2016-03-11T05:09:01.213Z,0.39
2016-03-11T05:10:01.215Z,0.31
2016-03-11T05:11:01.202Z,0.28
2016-03-11T05:12:01.204Z,0.39
2016-03-11T05:13:01.176Z,0.36
2016-03-11T05:14:01.209Z,0.4
2016-03-11T05:15:01.197Z,0.41
2016-03-11T05:16:01.215Z,0.31
2016-03-11T05:17:01.156Z,0.39
2016-03-11T05:18:01.159Z,0.37
2016-03-11T05:19:01.145Z,0.28
2016-03-11T05:20:01.132Z,0.37
2016-03-11T05:21:01.150Z,0.31
2016-03-11T05:22:01.122Z,0.34
2016-03-11T05:23:01.125Z,0.34
2016-03-11T05:24:01.112Z,0.47
2016-03-11T05:25:01.114Z,0.32
2016-03-11T05:26:01.117Z,0.32
2016-03-11T05:27:01.104Z,0.28
2016-03-11T05:28:01.061Z,0.32
2016-03-11T05:29:01.078Z,0.36
2016-03-11T05:30:01.050Z,0.32
2016-03-11T05:31:01.068Z,0.31
2016-03-11T05:32:01.056Z,0.26
2016-03-11T05:33:01.058Z,0.31
2016-03-11T05:34:01.030Z,0.32
2016-03-11T05:35:01.047Z,0.21
2016-03-11T05:36:01.050Z,0.23
2016-03-11T05:37:01.038Z,0.26
2016-03-11T05:38:01.008Z,0.28
2016-03-11T05:39:01.027Z,0.34
2016-03-11T05:40:00.998Z,0.28
2016-03-11T05:41:01.002Z,0.31
2016-03-11T05:42:00.988Z,0.31
2016-03-11T05:43:00.991Z,0.32
2016-03-11T05:44:00.979Z,0.34
2016-03-11T05:45:00.965Z,0.32
2016-03-11T05:46:00.984Z,0.31
2016-03-11T05:47:00.939Z,0.25
2016-03-11T05:48:00.943Z,0.28
2016-03-11T05:49:00.945Z,0.34
2016-03-11T05:50:00.916Z,0.34
2016-03-11T05:51:00.934Z,0.29
2016-03-11T05:52:00.906Z,0.34
2016-03-11T05:53:00.924Z,0.4
2016-03-11T05:54:00.895Z,0.47
2016-03-11T05:55:00.914Z,0.39
2016-03-11T05:56:00.900Z,0.37
2016-03-11T05:57:00.873Z,0.44
2016-03-11T05:58:00.875Z,0.4
2016-03-11T05:59:00.878Z,0.44
2016-03-11T06:00:00.864Z,0.49
2016-03-11T06:01:00.867Z,0.59
2016-03-11T06:02:00.855Z,0.55
2016-03-11T06:03:00.842Z,0.55
2016-03-11T06:04:00.844Z,0.63
2016-03-11T06:05:00.816Z,0.63
2016-03-11T06:06:00.834Z,0.58
2016-03-11T06:07:00.806Z,0.68
2016-03-11T06:08:00.824Z,0.66
2016-03-11T06:09:00.827Z,0.7
2016-03-11T06:10:00.798Z,0.56
2016-03-11T06:11:00.769Z,0.73
2016-03-11T06:12:00.772Z,0.68
2016-03-11T06:13:00.774Z,0.7
2016-03-11T06:14:00.763Z,0.69
2016-03-11T06:15:00.765Z,0.7
2016-03-11T06:16:00.768Z,0.62
2016-03-11T06:17:00.754Z,0.68
2016-03-11T06:18:00.741Z,0.63
2016-03-11T06:19:00.728Z,0.69
2016-03-11T06:20:00.715Z,0.69
2016-03-11T06:21:00.718Z,0.69
2016-03-11T06:22:00.721Z,0.66
2016-03-11T06:23:00.709Z,0.77
2016-03-11T06:24:00.711Z,0.78
2016-03-11T06:25:00.698Z,0.76
2016-03-11T06:26:00.684Z,0.73
2016-03-11T06:27:00.672Z,0.77
2016-03-11T06:28:00.659Z,0.74
2016-03-11T06:29:00.645Z,0.8
2016-03-11T06:30:00.664Z,0.84
2016-03-11T06:31:00.667Z,0.81
2016-03-11T06:32:00.639Z,0.84
2016-03-11T06:33:00.500Z,0.83
2016-03-11T06:34:00.628Z,0.88
2016-03-11T06:35:00.615Z,0.87
2016-03-11T06:36:00.633Z,0.99
2016-03-11T06:37:00.636Z,0.95
2016-03-11T06:38:00.608Z,0.99
2016-03-11T06:39:00.626Z,1.04
2016-03-11T06:40:00.582Z,1.01
2016-03-11T06:41:00.600Z,1.01
2016-03-11T06:42:00.571Z,0.98
2016-03-11T06:43:00.574Z,1.08
2016-03-11T06:44:00.404Z,1.01
2016-03-11T06:45:00.563Z,1.01
2016-03-11T06:46:00.551Z,1.02
2016-03-11T06:47:00.554Z,1.01
2016-03-11T06:48:00.571Z,0.94
2016-03-11T06:49:00.543Z,0.86
2016-03-11T06:50:00.545Z,0.81
2016-03-11T06:51:00.517Z,0.81
2016-03-11T06:52:00.551Z,0.83
2016-03-11T06:53:00.507Z,0.81
2016-03-11T06:54:00.510Z,0.8
2016-03-11T06:55:00.498Z,0.76
2016-03-11T06:56:00.515Z,0.8
2016-03-11T06:57:00.487Z,0.77
2016-03-11T06:58:00.474Z,0.77
2016-03-11T06:59:00.493Z,0.78
2016-03-11T07:00:00.464Z,0.76
2016-03-11T07:01:00.482Z,0.73
2016-03-11T07:02:00.438Z,0.73
2016-03-11T07:03:00.456Z,0.7
2016-03-11T07:04:00.427Z,0.74
2016-03-11T07:05:00.430Z,0.74
2016-03-11T07:06:00.417Z,0.84
2016-03-11T07:07:00.436Z,0.81
2016-03-11T07:08:00.407Z,0.87
2016-03-11T07:09:00.410Z,0.95
2016-03-11T07:10:00.381Z,0.96
2016-03-11T07:11:00.399Z,1.08
2016-03-11T07:12:00.386Z,1.05
2016-03-11T07:13:00.374Z,1.01
2016-03-11T07:14:00.361Z,1.08
2016-03-11T07:15:00.363Z,1.08
2016-03-11T07:16:00.351Z,0.99
2016-03-11T07:17:00.353Z,1.02
2016-03-11T07:18:00.388Z,0.99
2016-03-11T07:19:00.359Z,1.14
2016-03-11T07:20:00.346Z,1.16
2016-03-11T07:21:00.332Z,1.14
2016-03-11T07:22:00.320Z,1.19
2016-03-11T07:23:00.323Z,1.26
2016-03-11T07:24:00.310Z,1.28
2016-03-11T07:25:00.296Z,1.3
2016-03-11T07:26:00.315Z,1.37
2016-03-11T07:27:00.286Z,1.34
2016-03-11T07:28:00.304Z,1.45
2016-03-11T07:29:00.276Z,1.48
2016-03-11T07:30:00.264Z,1.41
2016-03-11T07:31:00.281Z,1.44
2016-03-11T07:32:00.253Z,1.49
2016-03-11T07:33:00.256Z,1.58
2016-03-11T07:34:00.242Z,1.59
2016-03-11T07:35:00.261Z,1.55
2016-03-11T07:36:00.247Z,1.59
2016-03-11T07:37:00.250Z,1.58
2016-03-11T07:38:00.238Z,1.55
2016-03-11T07:39:00.241Z,1.56
2016-03-11T07:40:00.211Z,1.63
2016-03-11T07:41:00.214Z,1.56
2016-03-11T07:42:00.216Z,1.56
2016-03-11T07:43:00.189Z,1.53
2016-03-11T07:44:00.207Z,1.58
2016-03-11T07:45:00.194Z,1.58
2016-03-11T07:46:00.182Z,1.68
2016-03-11T07:47:00.168Z,1.7
2016-03-11T07:48:00.187Z,1.73
2016-03-11T07:49:00.157Z,1.76
2016-03-11T07:50:00.193Z,1.77
2016-03-11T07:51:00.148Z,1.88
2016-03-11T07:52:00.182Z,1.92
2016-03-11T07:53:00.153Z,1.97
2016-03-11T07:54:00.140Z,1.94
2016-03-11T07:55:00.126Z,2.04
2016-03-11T07:56:00.145Z,1.97
2016-03-11T07:57:00.117Z,2.04
2016-03-11T07:58:00.120Z,2.08
2016-03-11T07:59:00.122Z,2.14
2016-03-11T08:00:00.109Z,2.1
2016-03-11T08:01:00.112Z,2.08
2016-03-11T08:02:00.114Z,2.15
2016-03-11T08:03:00.087Z,2.26
2016-03-11T08:04:00.089Z,2.26
2016-03-11T08:05:00.076Z,2.31
2016-03-11T08:06:00.078Z,2.35
2016-03-11T08:07:00.066Z,2.39
2016-03-11T08:08:00.100Z,2.36
2016-03-11T08:09:00.056Z,2.42
2016-03-11T08:10:00.074Z,2.42
2016-03-11T08:11:00.061Z,2.42
2016-03-11T08:12:00.064Z,2.38
2016-03-11T08:13:00.067Z,2.36
2016-03-11T08:14:00.038Z,2.44
2016-03-11T08:15:00.025Z,2.49
2016-03-11T08:16:00.091Z,2.51
2016-03-11T08:17:00.030Z,2.51
2016-03-11T08:18:00.033Z,2.53
2016-03-11T08:19:00.021Z,2.54
2016-03-11T08:20:00.038Z,2.61
2016-03-11T08:21:00.010Z,2.6
2016-03-11T08:22:00.325Z,2.57
2016-03-11T08:23:00.015Z,2.57
2016-03-11T08:23:59.987Z,2.62
2016-03-11T08:24:59.989Z,2.64
2016-03-11T08:26:00.007Z,2.67
2016-03-11T08:26:59.995Z,2.74
2016-03-11T08:27:59.981Z,2.65
2016-03-11T08:28:59.984Z,2.61
2016-03-11T08:29:59.971Z,2.53
2016-03-11T08:30:59.959Z,2.56
2016-03-11T08:31:59.961Z,2.54
2016-03-11T08:32:59.964Z,2.53
2016-03-11T08:33:59.951Z,2.57
2016-03-11T08:34:59.953Z,2.6
2016-03-11T08:35:59.941Z,2.75
2016-03-11T08:36:59.943Z,2.69
2016-03-11T08:37:59.947Z,2.89
2016-03-11T08:38:59.933Z,2.9
2016-03-11T08:39:59.936Z,2.86
2016-03-11T08:40:59.939Z,2.89
2016-03-11T08:41:59.941Z,2.86
2016-03-11T08:42:59.913Z,2.92
2016-03-11T08:43:59.915Z,2.95
2016-03-11T08:44:59.933Z,2.87
2016-03-11T08:45:59.905Z,2.87
2016-03-11T08:46:59.907Z,2.82
2016-03-11T08:47:59.894Z,2.85
2016-03-11T08:48:59.897Z,2.74
2016-03-11T08:49:59.916Z,2.8
2016-03-11T08:50:59.872Z,2.83
2016-03-11T08:51:59.890Z,2.92
2016-03-11T08:52:59.877Z,2.98
2016-03-11T08:53:59.879Z,2.89
2016-03-11T08:54:59.867Z,2.95
2016-03-11T08:55:59.885Z,2.92
2016-03-11T08:56:59.887Z,2.9
2016-03-11T08:57:59.875Z,2.82
2016-03-11T08:58:59.846Z,2.9
2016-03-11T08:59:59.709Z,2.89
2016-03-11T09:00:59.867Z,2.98
2016-03-11T09:01:59.853Z,3.08
2016-03-11T09:02:59.842Z,3.1
2016-03-11T09:03:59.828Z,3.18
2016-03-11T09:04:59.830Z,3.16
2016-03-11T09:05:59.833Z,3.26
2016-03-11T09:06:59.836Z,3.32
2016-03-11T09:07:59.839Z,3.44
2016-03-11T09:08:59.825Z,3.47
2016-03-11T09:09:59.844Z,3.45
2016-03-11T09:10:59.816Z,3.41
2016-03-11T09:11:59.803Z,3.28
2016-03-11T09:12:59.805Z,3.32
2016-03-11T09:13:59.793Z,3.32
2016-03-11T09:14:59.796Z,3.32
2016-03-11T09:15:59.830Z,3.42
2016-03-11T09:16:59.785Z,3.41
2016-03-11T09:17:59.788Z,3.51
2016-03-11T09:18:59.806Z,3.47
2016-03-11T09:19:59.871Z,3.48
2016-03-11T09:20:59.796Z,3.47
2016-03-11T09:21:59.798Z,3.58
2016-03-11T09:22:59.785Z,3.7
2016-03-11T09:23:59.773Z,3.7
2016-03-11T09:24:59.760Z,3.7
2016-03-11T09:25:59.762Z,3.59
2016-03-11T09:26:59.749Z,3.56
2016-03-11T09:27:59.752Z,3.55
2016-03-11T09:28:59.740Z,3.53
2016-03-11T09:29:59.742Z,3.34
2016-03-11T09:30:59.729Z,3.56
2016-03-11T09:31:59.748Z,3.51
2016-03-11T09:32:59.750Z,3.53
2016-03-11T09:33:59.752Z,3.5
2016-03-11T09:34:59.740Z,3.58
2016-03-11T09:35:59.742Z,3.56
2016-03-11T09:36:59.745Z,3.63
2016-03-11T09:37:59.733Z,3.6
2016-03-11T09:38:59.720Z,3.59
2016-03-11T09:39:59.706Z,3.59
2016-03-11T09:40:59.709Z,3.48
2016-03-11T09:41:59.696Z,3.45
2016-03-11T09:42:59.714Z,3.56
2016-03-11T09:43:59.686Z,3.48
2016-03-11T09:44:59.704Z,3.59
2016-03-11T09:45:59.675Z,3.6
2016-03-11T09:46:59.678Z,3.59
2016-03-11T09:47:59.680Z,3.6
2016-03-11T09:48:59.683Z,3.63
2016-03-11T09:49:59.701Z,3.68
2016-03-11T09:50:59.674Z,3.66
2016-03-11T09:51:59.661Z,3.73
2016-03-11T09:52:59.663Z,3.68
2016-03-11T09:53:59.510Z,3.76
2016-03-11T09:54:59.669Z,3.76
2016-03-11T09:55:59.640Z,3.84
2016-03-11T09:56:59.658Z,3.86
2016-03-11T09:57:59.646Z,3.95
2016-03-11T09:58:59.648Z,3.98
2016-03-11T09:59:59.635Z,3.98
2016-03-11T10:00:59.653Z,4.05
2016-03-11T10:01:59.703Z,4.08
2016-03-11T10:02:59.643Z,4.16
2016-03-11T10:03:59.645Z,4.13
2016-03-11T10:04:59.633Z,4.22
2016-03-11T10:05:59.620Z,4.34
2016-03-11T10:06:59.645Z,4.28
2016-03-11T10:07:59.615Z,4.24
2016-03-11T10:08:59.603Z,4.32
2016-03-11T10:09:59.621Z,4.4
2016-03-11T10:10:59.608Z,4.45
2016-03-11T10:11:59.626Z,4.59
2016-03-11T10:12:59.613Z,4.6
2016-03-11T10:13:59.617Z,4.63
2016-03-11T10:14:59.587Z,4.77
2016-03-11T10:15:59.589Z,4.77
2016-03-11T10:16:59.593Z,4.74
2016-03-11T10:17:59.581Z,4.9
2016-03-11T10:18:59.583Z,5.1
2016-03-11T10:19:59.585Z,5.28
2016-03-11T10:20:59.573Z,5.43
2016-03-11T10:21:59.575Z,5.47
2016-03-11T10:22:59.577Z,5.5
2016-03-11T10:23:59.565Z,5.61
2016-03-11T10:24:59.568Z,5.53
2016-03-11T10:25:59.571Z,5.47
2016-03-11T10:26:59.573Z,5.35
2016-03-11T10:27:59.576Z,5.2
2016-03-11T10:28:59.578Z,5.11
2016-03-11T10:29:59.581Z,5.11
2016-03-11T10:30:59.568Z,5.04
2016-03-11T10:31:59.570Z,5.08
2016-03-11T10:32:59.402Z,5.11
2016-03-11T10:33:59.576Z,5.1
2016-03-11T10:34:59.563Z,5.2
2016-03-11T10:35:59.550Z,5.3
2016-03-11T10:36:59.553Z,5.29
2016-03-11T10:37:59.540Z,5.26
2016-03-11T10:38:59.558Z,5.23
2016-03-11T10:39:59.546Z,5.23
2016-03-11T10:40:59.548Z,5.28
2016-03-11T10:41:59.534Z,5.36
2016-03-11T10:42:59.569Z,5.43
2016-03-11T10:43:59.603Z,5.51
2016-03-11T10:44:59.606Z,5.59
2016-03-11T10:45:59.545Z,5.73
2016-03-11T10:46:59.549Z,5.72
2016-03-11T10:47:59.520Z,5.65
2016-03-11T10:48:59.538Z,5.56
2016-03-11T10:49:59.525Z,5.61
2016-03-11T10:50:59.528Z,5.71
2016-03-11T10:51:59.531Z,5.71
2016-03-11T10:52:59.518Z,5.82
2016-03-11T10:53:59.536Z,5.64
2016-03-11T10:54:59.524Z,5.76
2016-03-11T10:55:59.526Z,5.89
2016-03-11T10:56:59.529Z,5.76
2016-03-11T10:57:59.531Z,5.64
2016-03-11T10:58:59.535Z,5.71
2016-03-11T10:59:59.505Z,5.69
2016-03-11T11:00:59.508Z,5.68
2016-03-11T11:01:59.526Z,5.68
2016-03-11T11:02:59.498Z,5.76
2016-03-11T11:03:59.516Z,5.75
2016-03-11T11:04:59.496Z,5.76
2016-03-11T11:05:59.484Z,5.86
2016-03-11T11:06:59.472Z,5.94
2016-03-11T11:07:59.444Z,5.91
2016-03-11T11:08:59.431Z,5.89
2016-03-11T11:09:59.424Z,5.97
2016-03-11T11:10:59.437Z,5.99
2016-03-11T11:11:59.418Z,5.97
2016-03-11T11:12:59.416Z,5.75
2016-03-11T11:13:59.397Z,5.71
2016-03-11T11:14:59.412Z,5.69
2016-03-11T11:15:59.397Z,5.71
2016-03-11T11:16:59.382Z,5.82
2016-03-11T11:17:59.398Z,5.89
2016-03-11T11:18:59.384Z,5.86
2016-03-11T11:19:59.385Z,5.86
2016-03-11T11:20:59.387Z,5.91
2016-03-11T11:21:59.373Z,5.89
2016-03-11T11:22:59.141Z,5.87
2016-03-11T11:23:59.612Z,5.89
2016-03-11T11:24:59.223Z,5.93
2016-03-11T11:25:59.382Z,5.89
2016-03-11T11:26:59.368Z,5.83
2016-03-11T11:27:59.385Z,5.83
2016-03-11T11:28:59.357Z,5.82
2016-03-11T11:29:59.375Z,5.84
2016-03-11T11:30:59.379Z,5.93
2016-03-11T11:31:59.365Z,5.91
2016-03-11T11:32:59.367Z,6.08
2016-03-11T11:33:59.355Z,6.14
2016-03-11T11:34:59.357Z,6.3
2016-03-11T11:35:59.359Z,6.38
2016-03-11T11:36:59.363Z,6.38
2016-03-11T11:37:59.365Z,6.46
2016-03-11T11:38:59.353Z,6.42
2016-03-11T11:39:59.355Z,6.52
2016-03-11T11:40:59.358Z,6.41
2016-03-11T11:41:59.361Z,6.36
2016-03-11T11:42:59.347Z,6.38
2016-03-11T11:43:59.350Z,6.33
2016-03-11T11:44:59.353Z,6.36
2016-03-11T11:45:59.339Z,6.35
2016-03-11T11:46:59.358Z,6.36
2016-03-11T11:47:59.345Z,6.36
2016-03-11T11:48:59.347Z,6.24
2016-03-11T11:49:59.335Z,6.24
2016-03-11T11:50:59.338Z,6.3
2016-03-11T11:51:59.341Z,6.28
2016-03-11T11:52:59.343Z,6.22
2016-03-11T11:53:59.361Z,6.11
2016-03-11T11:54:59.333Z,6.11
2016-03-11T11:55:59.336Z,6.26
2016-03-11T11:56:59.369Z,6.3
2016-03-11T11:57:59.341Z,6.28
2016-03-11T11:58:59.344Z,6.22
2016-03-11T11:59:59.346Z,6.28
2016-03-11T12:00:59.334Z,6.27
2016-03-11T12:01:59.352Z,6.31
2016-03-11T12:02:59.340Z,6.38
2016-03-11T12:03:59.342Z,6.41
2016-03-11T12:04:59.360Z,6.45
2016-03-11T12:05:59.331Z,6.48
2016-03-11T12:06:59.350Z,6.51
2016-03-11T12:07:59.337Z,6.7
2016-03-11T12:08:59.339Z,6.79
2016-03-11T12:09:59.342Z,6.84
2016-03-11T12:10:59.329Z,6.97
2016-03-11T12:11:59.347Z,7.15
2016-03-11T12:12:59.320Z,7.17
2016-03-11T12:13:59.400Z,7.35
2016-03-11T12:14:59.325Z,7.33
2016-03-11T12:15:59.327Z,7.36
2016-03-11T12:16:59.345Z,7.38
2016-03-11T12:17:59.333Z,7.39
2016-03-11T12:18:59.366Z,7.45
2016-03-11T12:19:59.338Z,7.33
2016-03-11T12:20:59.341Z,7.24
2016-03-11T12:21:59.328Z,7.18
2016-03-11T12:22:59.330Z,7.15
2016-03-11T12:23:59.333Z,7.15
2016-03-11T12:24:59.336Z,7.29
2016-03-11T12:25:59.322Z,7.28
2016-03-11T12:26:59.341Z,7.11
2016-03-11T12:27:59.343Z,7.14
2016-03-11T12:28:59.362Z,7.14
2016-03-11T12:29:59.349Z,7.29
2016-03-11T12:30:59.336Z,7.29
2016-03-11T12:31:59.338Z,7.36
2016-03-11T12:32:59.341Z,7.56
2016-03-11T12:33:59.360Z,7.61
2016-03-11T12:34:59.347Z,7.7
2016-03-11T12:35:59.334Z,7.61
2016-03-11T12:36:59.368Z,7.58
2016-03-11T12:37:59.339Z,7.56
2016-03-11T12:38:59.342Z,7.51
2016-03-11T12:39:59.345Z,7.51
2016-03-11T12:40:59.347Z,7.72
2016-03-11T12:41:59.350Z,7.73
2016-03-11T12:42:59.352Z,7.56
2016-03-11T12:43:59.340Z,7.51
2016-03-11T12:44:59.358Z,7.47
2016-03-11T12:45:59.345Z,7.58
2016-03-11T12:46:59.348Z,7.4
2016-03-11T12:47:59.350Z,7.39
2016-03-11T12:48:59.416Z,7.45
2016-03-11T12:49:59.372Z,7.53
2016-03-11T12:50:59.359Z,7.57
2016-03-11T12:51:59.346Z,7.8
2016-03-11T12:52:59.349Z,7.77
2016-03-11T12:53:59.367Z,7.73
2016-03-11T12:54:59.369Z,7.85
2016-03-11T12:55:59.357Z,7.91
2016-03-11T12:56:59.360Z,7.88
2016-03-11T12:57:59.346Z,7.95
2016-03-11T12:58:59.349Z,8.05
2016-03-11T12:59:59.210Z,8.05
2016-03-11T13:00:59.354Z,8.18
2016-03-11T13:01:59.357Z,8.28
2016-03-11T13:02:59.359Z,8.42
2016-03-11T13:03:59.440Z,8.44
2016-03-11T13:04:59.365Z,8.44
2016-03-11T13:05:59.368Z,8.33
2016-03-11T13:06:59.354Z,8.24
2016-03-11T13:07:59.357Z,8.23
2016-03-11T13:08:59.360Z,8.06
2016-03-11T13:09:59.379Z,8.06
2016-03-11T13:10:59.381Z,7.97
2016-03-11T13:11:59.368Z,7.91
2016-03-11T13:12:59.371Z,7.93
2016-03-11T13:13:59.358Z,7.67
2016-03-11T13:14:59.204Z,7.72
2016-03-11T13:15:59.379Z,7.67
2016-03-11T13:16:59.366Z,7.53
2016-03-11T13:17:59.369Z,7.51
2016-03-11T13:18:59.371Z,7.61
2016-03-11T13:19:59.374Z,7.61